createdAt,value
2023-02-17T00:04:05.992Z,11.38
2023-02-17T00:09:08.869Z,11.39
2023-02-17T00:14:13.225Z,11.33
2023-02-17T00:19:26.261Z,11.35
2023-02-17T00:24:29.972Z,11.31
2023-02-17T00:29:32.847Z,11.25
2023-02-17T00:34:37.133Z,11.25
2023-02-17T00:39:39.999Z,11.11
2023-02-17T00:44:42.884Z,11.15
2023-02-17T00:49:47.177Z,11.00
2023-02-17T00:54:50.123Z,10.73
2023-02-17T00:59:52.994Z,10.67
2023-02-17T01:04:57.292Z,10.68
2023-02-17T01:10:00.177Z,10.53
2023-02-17T01:15:03.082Z,10.54
2023-02-17T01:20:08.464Z,10.49
2023-02-17T01:25:11.337Z,10.62
2023-02-17T01:30:15.221Z,10.53
2023-02-17T01:35:19.525Z,10.58
2023-02-17T01:40:22.453Z,10.55
2023-02-17T01:45:34.234Z,10.45
2023-02-17T01:50:40.529Z,10.60
2023-02-17T01:55:44.082Z,10.73
2023-02-17T02:00:47.580Z,10.43
2023-02-17T02:05:52.118Z,10.31
2023-02-17T02:10:54.976Z,10.36
2023-02-17T02:16:02.853Z,10.46
2023-02-17T02:21:25.226Z,10.48
2023-02-17T02:26:45.732Z,9.88
2023-02-17T02:31:58.754Z,9.80
2023-02-17T02:37:07.971Z,9.75
2023-02-17T02:42:12.636Z,9.71
2023-02-17T02:47:30.295Z,9.60
2023-02-17T02:52:38.500Z,9.65
2023-02-17T02:57:47.561Z,9.90
2023-02-17T03:02:52.725Z,9.81
2023-02-17T03:08:00.337Z,10.04
2023-02-17T03:13:03.452Z,9.82
2023-02-17T03:18:06.609Z,9.68
2023-02-17T03:23:10.991Z,9.52
2023-02-17T03:28:13.863Z,9.59
2023-02-17T03:33:16.770Z,9.94
2023-02-17T03:38:21.027Z,9.76
2023-02-17T03:43:23.915Z,10.08
2023-02-17T03:48:26.782Z,9.70
2023-02-17T03:53:31.152Z,9.71
2023-02-17T03:58:34.049Z,9.75
2023-02-17T04:03:37.257Z,9.94
2023-02-17T04:08:41.556Z,9.85
2023-02-17T04:13:44.436Z,9.73
2023-02-17T04:18:47.524Z,9.97
2023-02-17T04:23:51.800Z,9.74
2023-02-17T04:28:54.663Z,9.68
2023-02-17T04:33:57.546Z,9.78
2023-02-17T04:39:01.819Z,9.88
2023-02-17T04:44:04.699Z,10.02
2023-02-17T04:49:07.564Z,10.05
2023-02-17T04:54:11.858Z,9.72
2023-02-17T04:59:14.764Z,9.53
2023-02-17T05:04:17.621Z,9.32
2023-02-17T05:09:21.951Z,9.07
2023-02-17T05:14:24.827Z,8.90
2023-02-17T05:19:27.749Z,8.86
2023-02-17T05:24:32.193Z,8.77
2023-02-17T05:29:35.192Z,9.08
2023-02-17T05:34:38.117Z,8.81
2023-02-17T05:39:42.439Z,8.90
2023-02-17T05:44:45.317Z,8.91
2023-02-17T05:49:48.209Z,8.88
2023-02-17T05:54:52.484Z,8.68
2023-02-17T05:59:55.321Z,8.66
2023-02-17T06:04:58.321Z,8.63
2023-02-17T06:10:02.644Z,8.49
2023-02-17T06:15:05.687Z,8.33
2023-02-17T06:20:09.295Z,8.37
2023-02-17T06:25:13.575Z,8.28
2023-02-17T06:30:17.727Z,8.27
2023-02-17T06:35:20.750Z,8.37
2023-02-17T06:40:27.498Z,8.35
2023-02-17T06:45:31.411Z,8.23
2023-02-17T06:50:34.342Z,8.27
2023-02-17T06:55:39.691Z,8.29
2023-02-17T07:00:42.552Z,8.23
2023-02-17T07:05:45.455Z,8.14
2023-02-17T07:10:49.756Z,8.15
2023-02-17T07:15:52.607Z,8.02
2023-02-17T07:20:55.462Z,8.12
2023-02-17T07:26:02.388Z,8.11
2023-02-17T07:31:08.846Z,8.31
2023-02-17T07:36:12.626Z,8.46
2023-02-17T07:41:17.986Z,8.40
2023-02-17T07:46:21.169Z,8.33
2023-02-17T07:51:24.213Z,8.48
2023-02-17T07:56:30.278Z,8.48
2023-02-17T08:01:33.236Z,8.53
2023-02-17T08:06:36.205Z,8.82
2023-02-17T08:11:58.309Z,8.62
2023-02-17T08:17:01.234Z,8.99
2023-02-17T08:22:04.281Z,8.91
2023-02-17T08:27:10.005Z,9.25
2023-02-17T08:32:13.178Z,9.74
2023-02-17T08:37:16.122Z,9.95
2023-02-17T08:42:20.408Z,10.46
2023-02-17T08:47:23.269Z,10.80
2023-02-17T08:52:26.146Z,11.18
2023-02-17T08:57:30.391Z,11.70
2023-02-17T09:02:33.270Z,13.44
2023-02-17T09:07:36.196Z,14.24
2023-02-17T09:12:40.573Z,15.12
2023-02-17T09:17:43.465Z,15.95
2023-02-17T09:22:46.490Z,16.08
2023-02-17T09:27:50.866Z,15.44
2023-02-17T09:32:53.917Z,14.48
2023-02-17T09:37:56.936Z,14.10
2023-02-17T09:43:01.436Z,13.96
2023-02-17T09:48:07.488Z,13.84
2023-02-17T09:53:13.764Z,13.97
2023-02-17T09:58:20.559Z,13.87
2023-02-17T10:03:26.428Z,13.88
2023-02-17T10:08:32.335Z,14.14
2023-02-17T10:13:38.144Z,14.14
2023-02-17T10:18:45.075Z,14.17
2023-02-17T10:23:48.160Z,14.19
2023-02-17T10:28:53.871Z,14.25
2023-02-17T10:34:02.755Z,14.40
2023-02-17T10:39:11.229Z,14.46
2023-02-17T10:44:19.463Z,14.78
2023-02-17T10:49:29.652Z,14.94
2023-02-17T10:54:38.834Z,15.42
2023-02-17T10:59:44.364Z,15.83
2023-02-17T11:04:49.013Z,16.98
2023-02-17T11:09:53.256Z,18.18
2023-02-17T11:14:57.698Z,18.68
2023-02-17T11:20:04.217Z,19.25
2023-02-17T11:25:09.468Z,19.84
2023-02-17T11:30:18.918Z,20.29
2023-02-17T11:35:23.859Z,20.69
2023-02-17T11:40:27.719Z,20.94
2023-02-17T11:45:36.768Z,20.84
2023-02-17T11:50:46.999Z,21.39
2023-02-17T11:55:56.232Z,20.86
2023-02-17T12:01:08.424Z,20.87
2023-02-17T12:06:16.630Z,21.37
2023-02-17T12:11:24.856Z,21.38
2023-02-17T12:16:43.204Z,20.91
2023-02-17T12:21:55.312Z,22.02
2023-02-17T12:27:06.512Z,22.27
2023-02-17T12:32:22.740Z,22.40
2023-02-17T12:37:27.943Z,22.58
2023-02-17T12:42:35.138Z,22.79
2023-02-17T12:47:47.342Z,22.92
2023-02-17T12:52:54.547Z,23.26
2023-02-17T12:58:00.736Z,22.48
2023-02-17T13:03:06.939Z,22.98
2023-02-17T13:08:14.175Z,23.30
2023-02-17T13:13:29.376Z,23.75
2023-02-17T13:18:37.575Z,23.68
2023-02-17T13:23:43.773Z,23.42
2023-02-17T13:28:48.015Z,23.83
2023-02-17T13:33:54.465Z,24.67
2023-02-17T13:39:01.443Z,23.98
2023-02-17T13:44:23.665Z,24.40
2023-02-17T13:49:33.873Z,24.35
2023-02-17T13:54:38.067Z,23.94
2023-02-17T13:59:43.251Z,24.72
2023-02-17T14:04:49.466Z,24.66
2023-02-17T14:09:55.637Z,24.41
2023-02-17T14:14:59.812Z,24.40
2023-02-17T14:20:07.021Z,23.87
2023-02-17T14:25:14.235Z,24.00
2023-02-17T14:30:29.362Z,24.40
2023-02-17T14:35:39.669Z,24.32
2023-02-17T14:40:44.881Z,24.60
2023-02-17T14:45:49.049Z,24.46
2023-02-17T14:50:58.336Z,24.66
2023-02-17T14:56:05.724Z,25.20
2023-02-17T15:01:13.753Z,24.00
2023-02-17T15:06:23.498Z,24.27
2023-02-17T15:11:31.147Z,24.23
2023-02-17T15:16:36.360Z,23.96
2023-02-17T15:21:46.563Z,24.30
2023-02-17T15:26:51.765Z,24.27
2023-02-17T15:31:57.059Z,23.62
2023-02-17T15:37:04.309Z,24.25
2023-02-17T15:42:08.481Z,23.93
2023-02-17T15:47:14.979Z,23.82
2023-02-17T15:52:19.345Z,23.26
2023-02-17T15:57:23.480Z,23.33
2023-02-17T16:02:26.896Z,23.53
2023-02-17T16:07:31.251Z,23.29
2023-02-17T16:12:34.288Z,23.26
2023-02-17T16:17:37.293Z,23.09
2023-02-17T16:22:42.839Z,23.35
2023-02-17T16:27:49.020Z,23.23
2023-02-17T16:32:54.203Z,22.62
2023-02-17T16:38:02.415Z,22.55
2023-02-17T16:43:06.595Z,22.36
2023-02-17T16:48:10.777Z,22.06
2023-02-17T16:53:19.982Z,22.07
2023-02-17T16:58:25.178Z,21.86
2023-02-17T17:03:29.445Z,21.89
2023-02-17T17:08:36.552Z,21.78
2023-02-17T17:13:40.745Z,21.50
2023-02-17T17:18:45.942Z,21.20
2023-02-17T17:23:53.145Z,20.82
2023-02-17T17:28:58.322Z,20.55
2023-02-17T17:34:02.519Z,20.38
2023-02-17T17:39:10.732Z,20.12
2023-02-17T17:44:15.922Z,19.85
2023-02-17T17:49:20.112Z,19.68
2023-02-17T17:54:28.320Z,19.41
2023-02-17T17:59:32.507Z,19.04
2023-02-17T18:04:36.737Z,18.80
2023-02-17T18:09:44.885Z,18.63
2023-02-17T18:14:51.097Z,18.13
2023-02-17T18:19:56.313Z,17.93
2023-02-17T18:25:03.491Z,17.66
2023-02-17T18:30:08.708Z,17.48
2023-02-17T18:35:12.860Z,17.33
2023-02-17T18:40:21.063Z,17.23
2023-02-17T18:45:27.256Z,16.95
2023-02-17T18:50:33.321Z,16.75
2023-02-17T18:55:41.650Z,16.68
2023-02-17T19:00:45.852Z,16.28
2023-02-17T19:05:50.042Z,16.26
2023-02-17T19:10:57.245Z,16.07
2023-02-17T19:16:07.763Z,16.05
2023-02-17T19:21:12.630Z,16.06
2023-02-17T19:26:19.818Z,15.83
2023-02-17T19:31:24.071Z,15.74
2023-02-17T19:36:28.196Z,15.48
2023-02-17T19:41:35.992Z,15.42
2023-02-17T19:46:40.642Z,15.17
2023-02-17T19:51:44.790Z,15.19
2023-02-17T19:56:51.996Z,14.92
2023-02-17T20:01:56.274Z,14.69
2023-02-17T20:07:02.377Z,14.70
2023-02-17T20:12:09.576Z,14.52
2023-02-17T20:17:13.762Z,14.65
2023-02-17T20:22:17.944Z,14.47
2023-02-17T20:27:25.139Z,14.16
2023-02-17T20:32:29.410Z,14.11
2023-02-17T20:37:33.511Z,13.99
2023-02-17T20:42:40.727Z,13.86
2023-02-17T20:47:44.804Z,13.93
2023-02-17T20:52:50.103Z,13.60
2023-02-17T20:57:57.347Z,13.24
2023-02-17T21:03:01.610Z,13.04
2023-02-17T21:08:05.737Z,13.23
2023-02-17T21:13:11.929Z,13.26
2023-02-17T21:18:16.132Z,12.96
2023-02-17T21:23:21.316Z,13.08
2023-02-17T21:28:28.528Z,12.94
2023-02-17T21:33:32.724Z,12.82
2023-02-17T21:38:36.906Z,12.90
2023-02-17T21:44:00.170Z,12.75
2023-02-17T21:49:03.112Z,12.78
2023-02-17T21:54:06.356Z,12.77
2023-02-17T21:59:10.615Z,12.75
2023-02-17T22:04:13.496Z,12.50
2023-02-17T22:09:18.137Z,12.34
2023-02-17T22:14:22.906Z,12.32
2023-02-17T22:19:26.074Z,12.37
2023-02-17T22:24:29.108Z,12.35
2023-02-17T22:29:33.430Z,11.87
2023-02-17T22:34:36.332Z,11.62
2023-02-17T22:39:39.184Z,11.42
2023-02-17T22:44:43.447Z,11.47
2023-02-17T22:49:46.346Z,11.20
2023-02-17T22:54:49.223Z,10.87
2023-02-17T22:59:53.475Z,11.20
2023-02-17T23:04:56.336Z,11.27
2023-02-17T23:09:59.208Z,11.28
2023-02-17T23:15:03.480Z,10.92
2023-02-17T23:20:06.772Z,10.71
2023-02-17T23:25:09.858Z,10.59
2023-02-17T23:30:19.269Z,10.56
2023-02-17T23:35:22.163Z,10.40
2023-02-17T23:40:25.084Z,10.34
2023-02-17T23:45:29.562Z,10.00
2023-02-17T23:50:32.457Z,9.94
2023-02-17T23:55:35.496Z,9.85
